sensor_id;sensor_type;location;lat;lon;timestamp;temperature;humidity
24158;DHT22;12316;50.904;4.200;2022-07-29T00:00:43;19.80;90.40
24158;DHT22;12316;50.904;4.200;2022-07-29T00:03:10;19.90;90.40
24158;DHT22;12316;50.904;4.200;2022-07-29T00:05:38;19.80;90.40
24158;DHT22;12316;50.904;4.200;2022-07-29T00:08:04;19.70;90.70
24158;DHT22;12316;50.904;4.200;2022-07-29T00:10:30;19.70;90.70
24158;DHT22;12316;50.904;4.200;2022-07-29T00:12:55;19.80;90.70
24158;DHT22;12316;50.904;4.200;2022-07-29T00:15:21;19.80;90.60
24158;DHT22;12316;50.904;4.200;2022-07-29T00:17:47;19.80;90.60
24158;DHT22;12316;50.904;4.200;2022-07-29T00:20:12;19.80;90.60
24158;DHT22;12316;50.904;4.200;2022-07-29T00:22:39;19.80;90.60
24158;DHT22;12316;50.904;4.200;2022-07-29T00:25:05;19.70;90.60
24158;DHT22;12316;50.904;4.200;2022-07-29T00:27:31;19.70;90.70
24158;DHT22;12316;50.904;4.200;2022-07-29T00:29:56;19.80;90.70
24158;DHT22;12316;50.904;4.200;2022-07-29T00:32:22;19.70;90.70
24158;DHT22;12316;50.904;4.200;2022-07-29T00:34:47;19.70;90.70
24158;DHT22;12316;50.904;4.200;2022-07-29T00:37:31;19.70;90.70
24158;DHT22;12316;50.904;4.200;2022-07-29T00:39:57;19.70;90.60
24158;DHT22;12316;50.904;4.200;2022-07-29T00:42:22;19.70;90.60
24158;DHT22;12316;50.904;4.200;2022-07-29T00:44:50;19.70;90.70
24158;DHT22;12316;50.904;4.200;2022-07-29T00:47:15;19.70;90.70
24158;DHT22;12316;50.904;4.200;2022-07-29T00:49:42;19.70;90.70
24158;DHT22;12316;50.904;4.200;2022-07-29T00:52:09;19.70;90.70
24158;DHT22;12316;50.904;4.200;2022-07-29T00:54:35;19.70;90.70
24158;DHT22;12316;50.904;4.200;2022-07-29T00:57:02;19.60;90.60
24158;DHT22;12316;50.904;4.200;2022-07-29T00:59:28;19.50;90.80
24158;DHT22;12316;50.904;4.200;2022-07-29T01:01:54;19.50;90.80
24158;DHT22;12316;50.904;4.200;2022-07-29T01:04:21;19.60;90.80
24158;DHT22;12316;50.904;4.200;2022-07-29T01:06:48;19.50;90.80
24158;DHT22;12316;50.904;4.200;2022-07-29T01:09:15;19.50;90.90
24158;DHT22;12316;50.904;4.200;2022-07-29T01:11:42;19.50;91.00
24158;DHT22;12316;50.904;4.200;2022-07-29T01:14:09;19.50;90.90
24158;DHT22;12316;50.904;4.200;2022-07-29T01:16:45;19.50;91.00
24158;DHT22;12316;50.904;4.200;2022-07-29T01:19:45;19.50;91.10
24158;DHT22;12316;50.904;4.200;2022-07-29T01:31:18;19.30;91.30
24158;DHT22;12316;50.904;4.200;2022-07-29T01:33:50;19.30;91.30
24158;DHT22;12316;50.904;4.200;2022-07-29T01:36:25;19.20;91.50
24158;DHT22;12316;50.904;4.200;2022-07-29T01:39:11;19.10;91.60
24158;DHT22;12316;50.904;4.200;2022-07-29T01:41:42;19.10;91.80
24158;DHT22;12316;50.904;4.200;2022-07-29T01:44:20;19.10;91.70
24158;DHT22;12316;50.904;4.200;2022-07-29T01:46:55;18.90;91.90
24158;DHT22;12316;50.904;4.200;2022-07-29T01:49:27;18.90;92.00
24158;DHT22;12316;50.904;4.200;2022-07-29T01:51:58;18.80;92.00
24158;DHT22;12316;50.904;4.200;2022-07-29T01:54:30;18.80;92.00
24158;DHT22;12316;50.904;4.200;2022-07-29T01:56:59;18.80;92.00
24158;DHT22;12316;50.904;4.200;2022-07-29T01:59:26;18.70;92.40
24158;DHT22;12316;50.904;4.200;2022-07-29T02:01:54;18.60;92.20
24158;DHT22;12316;50.904;4.200;2022-07-29T02:04:20;18.60;92.10
24158;DHT22;12316;50.904;4.200;2022-07-29T02:06:49;18.60;92.20
24158;DHT22;12316;50.904;4.200;2022-07-29T02:09:17;18.50;92.50
24158;DHT22;12316;50.904;4.200;2022-07-29T02:11:49;18.50;92.50
24158;DHT22;12316;50.904;4.200;2022-07-29T02:14:19;18.50;92.60
24158;DHT22;12316;50.904;4.200;2022-07-29T02:16:47;18.40;92.60
24158;DHT22;12316;50.904;4.200;2022-07-29T02:19:14;18.40;92.70
24158;DHT22;12316;50.904;4.200;2022-07-29T02:21:43;18.30;92.80
24158;DHT22;12316;50.904;4.200;2022-07-29T02:24:11;18.30;92.90
24158;DHT22;12316;50.904;4.200;2022-07-29T02:26:38;18.30;92.90
24158;DHT22;12316;50.904;4.200;2022-07-29T02:29:05;18.30;93.00
24158;DHT22;12316;50.904;4.200;2022-07-29T02:31:34;18.20;93.00
24158;DHT22;12316;50.904;4.200;2022-07-29T02:34:03;18.30;93.00
24158;DHT22;12316;50.904;4.200;2022-07-29T02:36:31;18.20;93.10
24158;DHT22;12316;50.904;4.200;2022-07-29T02:38:58;18.10;93.20
24158;DHT22;12316;50.904;4.200;2022-07-29T02:41:42;18.20;93.20
24158;DHT22;12316;50.904;4.200;2022-07-29T02:44:13;18.20;93.10
24158;DHT22;12316;50.904;4.200;2022-07-29T02:49:36;18.00;93.30
24158;DHT22;12316;50.904;4.200;2022-07-29T02:52:06;18.10;93.30
24158;DHT22;12316;50.904;4.200;2022-07-29T02:54:46;18.00;93.40
24158;DHT22;12316;50.904;4.200;2022-07-29T02:57:37;18.00;93.50
24158;DHT22;12316;50.904;4.200;2022-07-29T03:00:07;18.00;93.70
24158;DHT22;12316;50.904;4.200;2022-07-29T03:02:36;17.90;93.70
24158;DHT22;12316;50.904;4.200;2022-07-29T03:05:04;17.90;93.80
24158;DHT22;12316;50.904;4.200;2022-07-29T03:07:32;17.90;93.80
24158;DHT22;12316;50.904;4.200;2022-07-29T03:09:59;17.80;93.90
24158;DHT22;12316;50.904;4.200;2022-07-29T03:12:25;17.80;94.00
24158;DHT22;12316;50.904;4.200;2022-07-29T03:14:52;17.80;94.10
24158;DHT22;12316;50.904;4.200;2022-07-29T03:17:19;17.80;94.20
24158;DHT22;12316;50.904;4.200;2022-07-29T03:19:45;17.70;94.20
24158;DHT22;12316;50.904;4.200;2022-07-29T03:22:11;17.70;94.40
24158;DHT22;12316;50.904;4.200;2022-07-29T03:24:37;17.60;94.40
24158;DHT22;12316;50.904;4.200;2022-07-29T03:27:04;17.60;94.50
24158;DHT22;12316;50.904;4.200;2022-07-29T03:29:31;17.60;94.40
24158;DHT22;12316;50.904;4.200;2022-07-29T03:31:56;17.60;94.70
24158;DHT22;12316;50.904;4.200;2022-07-29T03:34:22;17.70;94.70
24158;DHT22;12316;50.904;4.200;2022-07-29T03:36:48;17.60;94.60
24158;DHT22;12316;50.904;4.200;2022-07-29T03:39:24;17.50;94.80
24158;DHT22;12316;50.904;4.200;2022-07-29T03:41:53;17.50;95.30
24158;DHT22;12316;50.904;4.200;2022-07-29T03:44:21;17.50;95.10
24158;DHT22;12316;50.904;4.200;2022-07-29T03:46:49;17.50;95.00
24158;DHT22;12316;50.904;4.200;2022-07-29T03:49:16;17.50;95.20
24158;DHT22;12316;50.904;4.200;2022-07-29T03:51:44;17.50;95.10
24158;DHT22;12316;50.904;4.200;2022-07-29T03:54:10;17.40;95.20
24158;DHT22;12316;50.904;4.200;2022-07-29T03:56:40;17.40;95.30
24158;DHT22;12316;50.904;4.200;2022-07-29T03:59:07;17.40;95.40
24158;DHT22;12316;50.904;4.200;2022-07-29T04:01:34;17.50;95.40
24158;DHT22;12316;50.904;4.200;2022-07-29T04:04:01;17.50;95.40
24158;DHT22;12316;50.904;4.200;2022-07-29T04:06:26;17.50;95.50
24158;DHT22;12316;50.904;4.200;2022-07-29T04:08:53;17.50;95.60
24158;DHT22;12316;50.904;4.200;2022-07-29T04:11:19;17.50;95.70
24158;DHT22;12316;50.904;4.200;2022-07-29T04:13:44;17.50;95.60
24158;DHT22;12316;50.904;4.200;2022-07-29T04:16:10;17.40;95.70
24158;DHT22;12316;50.904;4.200;2022-07-29T04:18:35;17.40;95.70
24158;DHT22;12316;50.904;4.200;2022-07-29T04:21:01;17.40;95.80
24158;DHT22;12316;50.904;4.200;2022-07-29T04:23:29;17.40;95.90
24158;DHT22;12316;50.904;4.200;2022-07-29T04:25:57;17.40;95.90
24158;DHT22;12316;50.904;4.200;2022-07-29T04:28:23;17.50;95.90
24158;DHT22;12316;50.904;4.200;2022-07-29T04:30:48;17.50;96.00
24158;DHT22;12316;50.904;4.200;2022-07-29T04:33:14;17.40;95.90
24158;DHT22;12316;50.904;4.200;2022-07-29T04:35:40;17.40;96.10
24158;DHT22;12316;50.904;4.200;2022-07-29T04:38:07;17.50;96.30
24158;DHT22;12316;50.904;4.200;2022-07-29T04:40:33;17.50;96.20
24158;DHT22;12316;50.904;4.200;2022-07-29T04:43:00;17.50;96.50
24158;DHT22;12316;50.904;4.200;2022-07-29T04:45:26;17.50;96.10
24158;DHT22;12316;50.904;4.200;2022-07-29T04:47:53;17.50;96.30
24158;DHT22;12316;50.904;4.200;2022-07-29T04:50:19;17.60;96.40
24158;DHT22;12316;50.904;4.200;2022-07-29T04:52:45;17.60;96.40
24158;DHT22;12316;50.904;4.200;2022-07-29T04:55:10;17.70;96.40
24158;DHT22;12316;50.904;4.200;2022-07-29T04:57:36;17.70;96.30
24158;DHT22;12316;50.904;4.200;2022-07-29T05:00:03;17.70;96.40
24158;DHT22;12316;50.904;4.200;2022-07-29T05:02:29;17.80;97.00
24158;DHT22;12316;50.904;4.200;2022-07-29T05:04:55;18.00;96.90
24158;DHT22;12316;50.904;4.200;2022-07-29T05:07:21;18.40;96.20
24158;DHT22;12316;50.904;4.200;2022-07-29T05:09:46;18.60;95.70
24158;DHT22;12316;50.904;4.200;2022-07-29T05:12:12;18.90;95.70
24158;DHT22;12316;50.904;4.200;2022-07-29T05:14:37;19.20;95.60
24158;DHT22;12316;50.904;4.200;2022-07-29T05:17:03;19.60;95.10
24158;DHT22;12316;50.904;4.200;2022-07-29T05:19:29;20.10;94.50
24158;DHT22;12316;50.904;4.200;2022-07-29T05:21:54;20.50;93.30
24158;DHT22;12316;50.904;4.200;2022-07-29T05:24:20;20.80;92.90
24158;DHT22;12316;50.904;4.200;2022-07-29T05:26:46;21.10;92.40
24158;DHT22;12316;50.904;4.200;2022-07-29T05:29:12;21.50;91.40
24158;DHT22;12316;50.904;4.200;2022-07-29T05:31:37;22.00;90.70
24158;DHT22;12316;50.904;4.200;2022-07-29T05:34:03;22.20;90.60
24158;DHT22;12316;50.904;4.200;2022-07-29T05:36:28;22.50;89.80
24158;DHT22;12316;50.904;4.200;2022-07-29T05:38:54;22.60;88.50
24158;DHT22;12316;50.904;4.200;2022-07-29T05:41:20;22.50;87.30
24158;DHT22;12316;50.904;4.200;2022-07-29T05:43:45;22.20;88.10
24158;DHT22;12316;50.904;4.200;2022-07-29T05:46:11;21.90;88.10
24158;DHT22;12316;50.904;4.200;2022-07-29T05:48:36;21.50;89.00
24158;DHT22;12316;50.904;4.200;2022-07-29T05:51:03;21.20;90.00
24158;DHT22;12316;50.904;4.200;2022-07-29T05:53:28;21.00;90.60
24158;DHT22;12316;50.904;4.200;2022-07-29T05:55:54;20.80;91.20
24158;DHT22;12316;50.904;4.200;2022-07-29T05:58:20;20.80;91.40
24158;DHT22;12316;50.904;4.200;2022-07-29T06:00:46;20.80;91.50
24158;DHT22;12316;50.904;4.200;2022-07-29T06:03:11;20.80;92.00
24158;DHT22;12316;50.904;4.200;2022-07-29T06:05:37;21.10;91.80
24158;DHT22;12316;50.904;4.200;2022-07-29T06:08:03;21.30;91.30
24158;DHT22;12316;50.904;4.200;2022-07-29T06:10:33;21.60;91.00
24158;DHT22;12316;50.904;4.200;2022-07-29T06:12:59;21.80;91.10
24158;DHT22;12316;50.904;4.200;2022-07-29T06:15:25;22.10;90.00
24158;DHT22;12316;50.904;4.200;2022-07-29T06:17:51;22.00;89.40
24158;DHT22;12316;50.904;4.200;2022-07-29T06:20:18;21.80;89.70
24158;DHT22;12316;50.904;4.200;2022-07-29T06:22:43;21.70;90.10
24158;DHT22;12316;50.904;4.200;2022-07-29T06:25:09;21.50;90.30
24158;DHT22;12316;50.904;4.200;2022-07-29T06:27:35;21.40;90.50
24158;DHT22;12316;50.904;4.200;2022-07-29T06:30:00;21.30;90.70
24158;DHT22;12316;50.904;4.200;2022-07-29T06:32:27;21.10;90.80
24158;DHT22;12316;50.904;4.200;2022-07-29T06:34:52;20.90;91.10
24158;DHT22;12316;50.904;4.200;2022-07-29T06:37:18;20.90;91.80
24158;DHT22;12316;50.904;4.200;2022-07-29T06:39:44;21.10;91.80
24158;DHT22;12316;50.904;4.200;2022-07-29T06:42:09;21.20;91.60
24158;DHT22;12316;50.904;4.200;2022-07-29T06:44:35;21.20;91.40
24158;DHT22;12316;50.904;4.200;2022-07-29T06:47:01;21.20;91.10
24158;DHT22;12316;50.904;4.200;2022-07-29T06:49:27;21.10;91.00
24158;DHT22;12316;50.904;4.200;2022-07-29T06:51:53;21.00;91.00
24158;DHT22;12316;50.904;4.200;2022-07-29T06:54:20;21.00;91.30
24158;DHT22;12316;50.904;4.200;2022-07-29T06:56:46;21.00;91.30
24158;DHT22;12316;50.904;4.200;2022-07-29T06:59:12;21.10;91.40
24158;DHT22;12316;50.904;4.200;2022-07-29T07:01:40;21.20;91.40
24158;DHT22;12316;50.904;4.200;2022-07-29T07:04:07;21.20;91.30
24158;DHT22;12316;50.904;4.200;2022-07-29T07:06:34;21.20;91.30
24158;DHT22;12316;50.904;4.200;2022-07-29T07:08:59;21.30;91.40
24158;DHT22;12316;50.904;4.200;2022-07-29T07:11:25;21.40;91.00
24158;DHT22;12316;50.904;4.200;2022-07-29T07:13:51;21.50;91.40
24158;DHT22;12316;50.904;4.200;2022-07-29T07:16:16;21.70;91.10
24158;DHT22;12316;50.904;4.200;2022-07-29T07:18:43;21.80;90.90
24158;DHT22;12316;50.904;4.200;2022-07-29T07:21:10;21.90;90.90
24158;DHT22;12316;50.904;4.200;2022-07-29T07:23:37;22.00;90.60
24158;DHT22;12316;50.904;4.200;2022-07-29T07:26:03;22.20;90.70
24158;DHT22;12316;50.904;4.200;2022-07-29T07:28:30;22.50;90.10
24158;DHT22;12316;50.904;4.200;2022-07-29T07:30:56;22.70;89.50
24158;DHT22;12316;50.904;4.200;2022-07-29T07:33:21;22.70;89.30
24158;DHT22;12316;50.904;4.200;2022-07-29T07:35:47;22.60;89.20
24158;DHT22;12316;50.904;4.200;2022-07-29T07:38:13;22.60;89.70
24158;DHT22;12316;50.904;4.200;2022-07-29T07:40:40;22.60;89.60
24158;DHT22;12316;50.904;4.200;2022-07-29T07:43:06;22.70;90.40
24158;DHT22;12316;50.904;4.200;2022-07-29T07:45:31;22.90;90.00
24158;DHT22;12316;50.904;4.200;2022-07-29T07:48:03;22.90;90.10
24158;DHT22;12316;50.904;4.200;2022-07-29T07:50:29;23.10;89.80
24158;DHT22;12316;50.904;4.200;2022-07-29T07:52:55;23.20;88.40
24158;DHT22;12316;50.904;4.200;2022-07-29T07:55:25;23.30;89.00
24158;DHT22;12316;50.904;4.200;2022-07-29T07:57:51;23.40;88.90
24158;DHT22;12316;50.904;4.200;2022-07-29T08:00:17;23.30;88.10
24158;DHT22;12316;50.904;4.200;2022-07-29T08:02:43;23.10;89.60
24158;DHT22;12316;50.904;4.200;2022-07-29T08:05:09;23.00;89.20
24158;DHT22;12316;50.904;4.200;2022-07-29T08:07:35;22.90;90.00
24158;DHT22;12316;50.904;4.200;2022-07-29T08:10:01;22.80;89.90
24158;DHT22;12316;50.904;4.200;2022-07-29T08:12:27;22.60;90.30
24158;DHT22;12316;50.904;4.200;2022-07-29T08:14:52;22.60;90.20
24158;DHT22;12316;50.904;4.200;2022-07-29T08:17:19;22.50;90.50
24158;DHT22;12316;50.904;4.200;2022-07-29T08:19:44;22.50;90.70
24158;DHT22;12316;50.904;4.200;2022-07-29T08:22:10;22.60;90.70
24158;DHT22;12316;50.904;4.200;2022-07-29T08:24:36;22.60;90.40
24158;DHT22;12316;50.904;4.200;2022-07-29T08:27:11;22.60;90.60
24158;DHT22;12316;50.904;4.200;2022-07-29T08:29:37;22.70;90.70
24158;DHT22;12316;50.904;4.200;2022-07-29T08:32:05;22.80;90.70
24158;DHT22;12316;50.904;4.200;2022-07-29T08:34:31;22.90;91.00
24158;DHT22;12316;50.904;4.200;2022-07-29T08:36:57;23.00;90.50
24158;DHT22;12316;50.904;4.200;2022-07-29T08:39:24;23.10;90.30
24158;DHT22;12316;50.904;4.200;2022-07-29T08:41:50;23.10;90.40
24158;DHT22;12316;50.904;4.200;2022-07-29T08:44:20;23.10;89.70
24158;DHT22;12316;50.904;4.200;2022-07-29T08:46:47;23.20;89.50
24158;DHT22;12316;50.904;4.200;2022-07-29T08:49:13;23.10;90.10
24158;DHT22;12316;50.904;4.200;2022-07-29T08:51:40;23.00;89.50
24158;DHT22;12316;50.904;4.200;2022-07-29T08:54:06;23.00;89.70
24158;DHT22;12316;50.904;4.200;2022-07-29T08:56:34;23.00;90.00
24158;DHT22;12316;50.904;4.200;2022-07-29T08:59:03;23.10;89.60
24158;DHT22;12316;50.904;4.200;2022-07-29T09:01:32;23.20;90.10
24158;DHT22;12316;50.904;4.200;2022-07-29T09:03:59;23.20;89.80
24158;DHT22;12316;50.904;4.200;2022-07-29T09:06:30;23.30;88.70
24158;DHT22;12316;50.904;4.200;2022-07-29T09:08:59;23.10;88.90
24158;DHT22;12316;50.904;4.200;2022-07-29T09:11:25;23.00;87.60
24158;DHT22;12316;50.904;4.200;2022-07-29T09:13:51;23.10;88.80
24158;DHT22;12316;50.904;4.200;2022-07-29T09:16:16;23.20;89.40
24158;DHT22;12316;50.904;4.200;2022-07-29T09:18:45;23.20;87.70
24158;DHT22;12316;50.904;4.200;2022-07-29T09:21:14;23.10;88.60
24158;DHT22;12316;50.904;4.200;2022-07-29T09:24:13;23.20;87.90
24158;DHT22;12316;50.904;4.200;2022-07-29T09:26:43;23.30;87.90
24158;DHT22;12316;50.904;4.200;2022-07-29T09:29:14;23.50;87.10
24158;DHT22;12316;50.904;4.200;2022-07-29T09:31:43;23.30;86.70
24158;DHT22;12316;50.904;4.200;2022-07-29T09:34:10;23.40;86.00
24158;DHT22;12316;50.904;4.200;2022-07-29T09:36:43;23.50;86.10
24158;DHT22;12316;50.904;4.200;2022-07-29T09:39:10;23.60;85.80
24158;DHT22;12316;50.904;4.200;2022-07-29T09:41:48;23.60;84.90
24158;DHT22;12316;50.904;4.200;2022-07-29T09:44:16;23.50;84.20
24158;DHT22;12316;50.904;4.200;2022-07-29T09:47:02;23.60;85.00
24158;DHT22;12316;50.904;4.200;2022-07-29T09:49:54;23.70;85.10
24158;DHT22;12316;50.904;4.200;2022-07-29T09:52:21;23.90;86.10
24158;DHT22;12316;50.904;4.200;2022-07-29T09:54:47;24.00;83.20
24158;DHT22;12316;50.904;4.200;2022-07-29T09:57:27;24.20;83.50
24158;DHT22;12316;50.904;4.200;2022-07-29T10:00:06;24.30;83.90
24158;DHT22;12316;50.904;4.200;2022-07-29T10:02:36;24.30;81.20
24158;DHT22;12316;50.904;4.200;2022-07-29T10:05:04;24.50;82.00
24158;DHT22;12316;50.904;4.200;2022-07-29T10:07:51;24.70;81.10
24158;DHT22;12316;50.904;4.200;2022-07-29T10:10:26;24.90;79.00
24158;DHT22;12316;50.904;4.200;2022-07-29T10:12:56;24.90;80.70
24158;DHT22;12316;50.904;4.200;2022-07-29T10:15:28;24.90;81.50
24158;DHT22;12316;50.904;4.200;2022-07-29T10:17:55;24.90;80.20
24158;DHT22;12316;50.904;4.200;2022-07-29T10:20:22;25.00;79.80
24158;DHT22;12316;50.904;4.200;2022-07-29T10:22:49;25.00;80.30
24158;DHT22;12316;50.904;4.200;2022-07-29T10:25:16;25.00;79.60
24158;DHT22;12316;50.904;4.200;2022-07-29T10:27:43;24.90;78.30
24158;DHT22;12316;50.904;4.200;2022-07-29T10:30:10;24.90;79.90
24158;DHT22;12316;50.904;4.200;2022-07-29T10:38:28;25.00;81.30
24158;DHT22;12316;50.904;4.200;2022-07-29T10:44:02;24.90;79.90
24158;DHT22;12316;50.904;4.200;2022-07-29T10:46:37;24.90;79.30
24158;DHT22;12316;50.904;4.200;2022-07-29T10:49:05;24.90;80.50
24158;DHT22;12316;50.904;4.200;2022-07-29T10:57:46;25.20;77.10
24158;DHT22;12316;50.904;4.200;2022-07-29T11:05:07;25.40;78.40
24158;DHT22;12316;50.904;4.200;2022-07-29T11:07:34;25.40;74.80
24158;DHT22;12316;50.904;4.200;2022-07-29T11:15:08;25.50;74.70
24158;DHT22;12316;50.904;4.200;2022-07-29T11:28:38;26.00;70.70
24158;DHT22;12316;50.904;4.200;2022-07-29T11:31:05;26.20;69.50
24158;DHT22;12316;50.904;4.200;2022-07-29T11:33:33;26.50;71.50
24158;DHT22;12316;50.904;4.200;2022-07-29T11:36:19;26.60;71.00
24158;DHT22;12316;50.904;4.200;2022-07-29T11:38:45;26.70;71.40
24158;DHT22;12316;50.904;4.200;2022-07-29T11:41:23;26.90;70.40
24158;DHT22;12316;50.904;4.200;2022-07-29T11:43:57;26.90;69.90
24158;DHT22;12316;50.904;4.200;2022-07-29T11:46:49;27.00;69.80
24158;DHT22;12316;50.904;4.200;2022-07-29T11:49:23;27.20;71.20
24158;DHT22;12316;50.904;4.200;2022-07-29T11:51:53;27.40;70.40
24158;DHT22;12316;50.904;4.200;2022-07-29T11:54:25;27.40;68.80
24158;DHT22;12316;50.904;4.200;2022-07-29T11:56:54;27.30;69.20
24158;DHT22;12316;50.904;4.200;2022-07-29T11:59:21;27.40;67.90
24158;DHT22;12316;50.904;4.200;2022-07-29T12:04:19;27.30;69.30
24158;DHT22;12316;50.904;4.200;2022-07-29T12:06:54;27.00;68.30
24158;DHT22;12316;50.904;4.200;2022-07-29T12:09:21;27.20;69.40
24158;DHT22;12316;50.904;4.200;2022-07-29T12:11:48;27.60;69.70
24158;DHT22;12316;50.904;4.200;2022-07-29T12:14:30;27.80;67.30
24158;DHT22;12316;50.904;4.200;2022-07-29T12:16:57;28.10;67.80
24158;DHT22;12316;50.904;4.200;2022-07-29T12:19:23;28.00;65.60
24158;DHT22;12316;50.904;4.200;2022-07-29T12:21:51;28.00;66.50
24158;DHT22;12316;50.904;4.200;2022-07-29T12:24:18;28.10;66.40
24158;DHT22;12316;50.904;4.200;2022-07-29T12:26:59;28.00;66.10
24158;DHT22;12316;50.904;4.200;2022-07-29T12:29:25;27.60;67.60
24158;DHT22;12316;50.904;4.200;2022-07-29T12:31:55;27.40;68.30
24158;DHT22;12316;50.904;4.200;2022-07-29T12:34:27;27.20;67.80
24158;DHT22;12316;50.904;4.200;2022-07-29T12:36:55;27.00;68.20
24158;DHT22;12316;50.904;4.200;2022-07-29T12:39:21;26.80;68.50
24158;DHT22;12316;50.904;4.200;2022-07-29T12:41:46;26.70;69.10
24158;DHT22;12316;50.904;4.200;2022-07-29T12:44:12;26.90;69.00
24158;DHT22;12316;50.904;4.200;2022-07-29T12:46:38;27.10;68.60
24158;DHT22;12316;50.904;4.200;2022-07-29T12:49:03;27.10;68.10
24158;DHT22;12316;50.904;4.200;2022-07-29T12:51:38;27.10;67.50
24158;DHT22;12316;50.904;4.200;2022-07-29T12:54:06;27.10;68.50
24158;DHT22;12316;50.904;4.200;2022-07-29T12:56:32;27.10;67.70
24158;DHT22;12316;50.904;4.200;2022-07-29T12:58:58;27.20;67.60
24158;DHT22;12316;50.904;4.200;2022-07-29T13:01:24;27.40;68.00
24158;DHT22;12316;50.904;4.200;2022-07-29T13:03:56;27.40;69.10
24158;DHT22;12316;50.904;4.200;2022-07-29T13:06:43;27.20;69.10
24158;DHT22;12316;50.904;4.200;2022-07-29T13:09:10;27.40;70.50
24158;DHT22;12316;50.904;4.200;2022-07-29T13:11:39;27.50;69.20
24158;DHT22;12316;50.904;4.200;2022-07-29T13:14:06;27.60;68.10
24158;DHT22;12316;50.904;4.200;2022-07-29T13:16:32;27.80;68.60
24158;DHT22;12316;50.904;4.200;2022-07-29T13:21:30;27.90;66.70
24158;DHT22;12316;50.904;4.200;2022-07-29T13:23:57;28.30;66.00
24158;DHT22;12316;50.904;4.200;2022-07-29T13:26:22;28.70;64.60
24158;DHT22;12316;50.904;4.200;2022-07-29T13:28:48;28.80;63.50
24158;DHT22;12316;50.904;4.200;2022-07-29T13:31:14;28.90;64.30
24158;DHT22;12316;50.904;4.200;2022-07-29T13:33:39;28.80;63.70
24158;DHT22;12316;50.904;4.200;2022-07-29T13:36:05;28.40;64.40
24158;DHT22;12316;50.904;4.200;2022-07-29T13:38:31;28.20;65.20
24158;DHT22;12316;50.904;4.200;2022-07-29T13:40:56;28.20;65.00
24158;DHT22;12316;50.904;4.200;2022-07-29T13:43:22;27.90;65.30
24158;DHT22;12316;50.904;4.200;2022-07-29T13:45:48;27.80;64.60
24158;DHT22;12316;50.904;4.200;2022-07-29T13:48:13;27.70;63.70
24158;DHT22;12316;50.904;4.200;2022-07-29T13:50:39;27.60;64.00
24158;DHT22;12316;50.904;4.200;2022-07-29T13:53:04;27.70;65.30
24158;DHT22;12316;50.904;4.200;2022-07-29T13:55:30;27.80;64.60
24158;DHT22;12316;50.904;4.200;2022-07-29T13:57:56;28.00;64.80
24158;DHT22;12316;50.904;4.200;2022-07-29T14:00:21;28.30;63.80
24158;DHT22;12316;50.904;4.200;2022-07-29T14:02:49;28.50;63.50
24158;DHT22;12316;50.904;4.200;2022-07-29T14:05:15;28.80;63.90
24158;DHT22;12316;50.904;4.200;2022-07-29T14:07:41;28.70;62.30
24158;DHT22;12316;50.904;4.200;2022-07-29T14:10:07;28.80;62.00
24158;DHT22;12316;50.904;4.200;2022-07-29T14:12:33;28.90;63.50
24158;DHT22;12316;50.904;4.200;2022-07-29T14:14:58;29.00;62.20
24158;DHT22;12316;50.904;4.200;2022-07-29T14:17:24;28.90;61.10
24158;DHT22;12316;50.904;4.200;2022-07-29T14:19:50;29.00;62.30
24158;DHT22;12316;50.904;4.200;2022-07-29T14:22:15;28.90;62.10
24158;DHT22;12316;50.904;4.200;2022-07-29T14:24:44;28.80;63.10
24158;DHT22;12316;50.904;4.200;2022-07-29T14:27:09;28.80;63.10
24158;DHT22;12316;50.904;4.200;2022-07-29T14:29:36;28.30;61.60
24158;DHT22;12316;50.904;4.200;2022-07-29T14:32:02;28.20;63.00
24158;DHT22;12316;50.904;4.200;2022-07-29T14:34:28;27.90;64.10
24158;DHT22;12316;50.904;4.200;2022-07-29T14:36:53;27.60;65.70
24158;DHT22;12316;50.904;4.200;2022-07-29T14:39:21;27.40;66.90
24158;DHT22;12316;50.904;4.200;2022-07-29T14:41:49;27.30;67.30
24158;DHT22;12316;50.904;4.200;2022-07-29T14:44:14;27.30;67.40
24158;DHT22;12316;50.904;4.200;2022-07-29T14:46:40;27.20;67.20
24158;DHT22;12316;50.904;4.200;2022-07-29T14:49:06;27.10;66.80
24158;DHT22;12316;50.904;4.200;2022-07-29T14:51:32;27.00;67.10
24158;DHT22;12316;50.904;4.200;2022-07-29T14:53:58;26.90;68.00
24158;DHT22;12316;50.904;4.200;2022-07-29T14:56:23;26.80;68.40
24158;DHT22;12316;50.904;4.200;2022-07-29T14:58:49;26.90;67.80
24158;DHT22;12316;50.904;4.200;2022-07-29T15:01:15;27.00;67.20
24158;DHT22;12316;50.904;4.200;2022-07-29T15:03:40;27.00;68.30
24158;DHT22;12316;50.904;4.200;2022-07-29T15:06:06;27.10;66.50
24158;DHT22;12316;50.904;4.200;2022-07-29T15:08:31;27.20;66.00
24158;DHT22;12316;50.904;4.200;2022-07-29T15:10:57;27.30;65.10
24158;DHT22;12316;50.904;4.200;2022-07-29T15:13:25;27.30;65.50
24158;DHT22;12316;50.904;4.200;2022-07-29T15:15:51;27.20;65.90
24158;DHT22;12316;50.904;4.200;2022-07-29T15:18:17;27.30;65.20
24158;DHT22;12316;50.904;4.200;2022-07-29T15:20:42;27.30;65.80
24158;DHT22;12316;50.904;4.200;2022-07-29T15:23:10;27.20;65.10
24158;DHT22;12316;50.904;4.200;2022-07-29T15:25:38;27.30;65.50
24158;DHT22;12316;50.904;4.200;2022-07-29T15:28:04;27.40;66.10
24158;DHT22;12316;50.904;4.200;2022-07-29T15:30:34;27.40;65.60
24158;DHT22;12316;50.904;4.200;2022-07-29T15:33:05;27.50;64.80
24158;DHT22;12316;50.904;4.200;2022-07-29T15:35:31;27.80;66.10
24158;DHT22;12316;50.904;4.200;2022-07-29T15:37:56;28.00;65.20
24158;DHT22;12316;50.904;4.200;2022-07-29T15:40:22;28.00;64.30
24158;DHT22;12316;50.904;4.200;2022-07-29T15:42:49;27.80;65.60
24158;DHT22;12316;50.904;4.200;2022-07-29T15:45:14;27.70;64.20
24158;DHT22;12316;50.904;4.200;2022-07-29T15:47:40;27.60;65.10
24158;DHT22;12316;50.904;4.200;2022-07-29T15:50:06;27.50;65.20
24158;DHT22;12316;50.904;4.200;2022-07-29T15:52:37;27.40;65.60
24158;DHT22;12316;50.904;4.200;2022-07-29T15:55:03;27.40;66.50
24158;DHT22;12316;50.904;4.200;2022-07-29T15:57:28;27.40;66.70
24158;DHT22;12316;50.904;4.200;2022-07-29T15:59:54;27.50;66.90
24158;DHT22;12316;50.904;4.200;2022-07-29T16:02:20;27.60;67.60
24158;DHT22;12316;50.904;4.200;2022-07-29T16:04:46;27.60;67.10
24158;DHT22;12316;50.904;4.200;2022-07-29T16:07:11;27.60;67.10
24158;DHT22;12316;50.904;4.200;2022-07-29T16:09:37;27.60;66.70
24158;DHT22;12316;50.904;4.200;2022-07-29T16:12:03;27.40;67.10
24158;DHT22;12316;50.904;4.200;2022-07-29T16:14:30;27.30;67.50
24158;DHT22;12316;50.904;4.200;2022-07-29T16:16:55;27.30;68.30
24158;DHT22;12316;50.904;4.200;2022-07-29T16:19:21;27.20;69.20
24158;DHT22;12316;50.904;4.200;2022-07-29T16:21:46;27.20;68.50
24158;DHT22;12316;50.904;4.200;2022-07-29T16:24:12;27.10;68.10
24158;DHT22;12316;50.904;4.200;2022-07-29T16:26:38;27.00;68.10